sensor_id;sensor_type;location;lat;lon;timestamp;P1;P2;P0
55043;PMS5003;54902;50.420;18.854;2022-12-18T00:00:16;6;6;6
55043;PMS5003;54902;50.420;18.854;2022-12-18T00:00:47;6;6;6
55043;PMS5003;54902;50.420;18.854;2022-12-18T00:01:22;9;9;9
55043;PMS5003;54902;50.420;18.854;2022-12-18T00:02:03;9;9;9
55043;PMS5003;54902;50.420;18.854;2022-12-18T00:02:34;9;9;9
55043;PMS5003;54902;50.420;18.854;2022-12-18T00:03:04;9;9;9
55043;PMS5003;54902;50.420;18.854;2022-12-18T00:03:35;9;9;9
55043;PMS5003;54902;50.420;18.854;2022-12-18T00:04:10;9;9;9
55043;PMS5003;54902;50.420;18.854;2022-12-18T00:04:49;9;9;9
55043;PMS5003;54902;50.420;18.854;2022-12-18T00:05:20;9;9;9
55043;PMS5003;54902;50.420;18.854;2022-12-18T00:05:51;9;9;9
55043;PMS5003;54902;50.420;18.854;2022-12-18T00:06:23;9;9;9
55043;PMS5003;54902;50.420;18.854;2022-12-18T00:06:55;9;9;9
55043;PMS5003;54902;50.420;18.854;2022-12-18T00:07:26;9;9;9
55043;PMS5003;54902;50.420;18.854;2022-12-18T00:07:57;3;3;3
55043;PMS5003;54902;50.420;18.854;2022-12-18T00:08:28;3;3;3
55043;PMS5003;54902;50.420;18.854;2022-12-18T00:09:00;3;3;3
55043;PMS5003;54902;50.420;18.854;2022-12-18T00:09:31;3;3;3
55043;PMS5003;54902;50.420;18.854;2022-12-18T00:10:03;3;3;3
55043;PMS5003;54902;50.420;18.854;2022-12-18T00:10:34;3;3;3
55043;PMS5003;54902;50.420;18.854;2022-12-18T00:11:06;3;3;3
55043;PMS5003;54902;50.420;18.854;2022-12-18T00:11:39;3;3;3
55043;PMS5003;54902;50.420;18.854;2022-12-18T00:12:10;3;3;2
55043;PMS5003;54902;50.420;18.854;2022-12-18T00:12:41;3;3;2
55043;PMS5003;54902;50.420;18.854;2022-12-18T00:13:12;3;3;2
55043;PMS5003;54902;50.420;18.854;2022-12-18T00:13:43;3;3;2
55043;PMS5003;54902;50.420;18.854;2022-12-18T00:14:14;3;3;2
55043;PMS5003;54902;50.420;18.854;2022-12-18T00:14:45;3;3;2
55043;PMS5003;54902;50.420;18.854;2022-12-18T00:15:16;3;3;2
55043;PMS5003;54902;50.420;18.854;2022-12-18T00:15:47;3;3;2
55043;PMS5003;54902;50.420;18.854;2022-12-18T00:16:19;3;3;2
55043;PMS5003;54902;50.420;18.854;2022-12-18T00:16:51;3;3;2
55043;PMS5003;54902;50.420;18.854;2022-12-18T00:17:22;4;4;3
55043;PMS5003;54902;50.420;18.854;2022-12-18T00:17:53;4;4;3
55043;PMS5003;54902;50.420;18.854;2022-12-18T00:18:24;4;4;3
55043;PMS5003;54902;50.420;18.854;2022-12-18T00:18:56;4;4;3
55043;PMS5003;54902;50.420;18.854;2022-12-18T00:19:27;4;4;3
55043;PMS5003;54902;50.420;18.854;2022-12-18T00:19:58;4;4;3
55043;PMS5003;54902;50.420;18.854;2022-12-18T00:20:30;4;4;3
55043;PMS5003;54902;50.420;18.854;2022-12-18T00:21:02;4;4;3
55043;PMS5003;54902;50.420;18.854;2022-12-18T00:21:35;3;3;2
55043;PMS5003;54902;50.420;18.854;2022-12-18T00:22:06;3;3;2
55043;PMS5003;54902;50.420;18.854;2022-12-18T00:22:37;5;5;3
55043;PMS5003;54902;50.420;18.854;2022-12-18T00:23:08;5;5;3
55043;PMS5003;54902;50.420;18.854;2022-12-18T00:23:40;5;5;3
55043;PMS5003;54902;50.420;18.854;2022-12-18T00:24:12;5;5;3
55043;PMS5003;54902;50.420;18.854;2022-12-18T00:24:43;5;5;3
55043;PMS5003;54902;50.420;18.854;2022-12-18T00:25:14;5;5;3
55043;PMS5003;54902;50.420;18.854;2022-12-18T00:25:45;5;5;3
55043;PMS5003;54902;50.420;18.854;2022-12-18T00:26:17;5;5;3
55043;PMS5003;54902;50.420;18.854;2022-12-18T00:26:50;5;5;3
55043;PMS5003;54902;50.420;18.854;2022-12-18T00:27:21;6;6;4
55043;PMS5003;54902;50.420;18.854;2022-12-18T00:27:52;4;3;3
55043;PMS5003;54902;50.420;18.854;2022-12-18T00:28:23;4;3;3
55043;PMS5003;54902;50.420;18.854;2022-12-18T00:28:55;4;3;3
55043;PMS5003;54902;50.420;18.854;2022-12-18T00:29:29;4;3;3
55043;PMS5003;54902;50.420;18.854;2022-12-18T00:30:00;4;3;3
55043;PMS5003;54902;50.420;18.854;2022-12-18T00:30:31;4;3;3
55043;PMS5003;54902;50.420;18.854;2022-12-18T00:31:06;4;3;3
55043;PMS5003;54902;50.420;18.854;2022-12-18T00:31:39;4;3;3
55043;PMS5003;54902;50.420;18.854;2022-12-18T00:32:11;4;3;3
55043;PMS5003;54902;50.420;18.854;2022-12-18T00:32:42;4;3;3
55043;PMS5003;54902;50.420;18.854;2022-12-18T00:33:13;6;4;4
55043;PMS5003;54902;50.420;18.854;2022-12-18T00:33:44;6;4;4
55043;PMS5003;54902;50.420;18.854;2022-12-18T00:34:15;6;4;4
55043;PMS5003;54902;50.420;18.854;2022-12-18T00:34:46;6;4;4
55043;PMS5003;54902;50.420;18.854;2022-12-18T00:35:17;6;4;4
55043;PMS5003;54902;50.420;18.854;2022-12-18T00:35:48;6;4;4
55043;PMS5003;54902;50.420;18.854;2022-12-18T00:36:21;6;4;4
55043;PMS5003;54902;50.420;18.854;2022-12-18T00:36:57;6;4;4
55043;PMS5003;54902;50.420;18.854;2022-12-18T00:37:27;4;3;3
55043;PMS5003;54902;50.420;18.854;2022-12-18T00:37:59;4;3;3
55043;PMS5003;54902;50.420;18.854;2022-12-18T00:38:30;7;6;4
55043;PMS5003;54902;50.420;18.854;2022-12-18T00:39:01;7;6;4
55043;PMS5003;54902;50.420;18.854;2022-12-18T00:39:34;7;6;4
55043;PMS5003;54902;50.420;18.854;2022-12-18T00:40:05;7;6;4
55043;PMS5003;54902;50.420;18.854;2022-12-18T00:40:37;7;6;4
55043;PMS5003;54902;50.420;18.854;2022-12-18T00:41:09;7;6;4
55043;PMS5003;54902;50.420;18.854;2022-12-18T00:41:41;7;6;4
55043;PMS5003;54902;50.420;18.854;2022-12-18T00:42:24;7;6;4
55043;PMS5003;54902;50.420;18.854;2022-12-18T00:43:08;7;6;4
55043;PMS5003;54902;50.420;18.854;2022-12-18T00:43:39;7;6;4
55043;PMS5003;54902;50.420;18.854;2022-12-18T00:44:12;10;9;6
55043;PMS5003;54902;50.420;18.854;2022-12-18T00:44:44;9;5;4
55043;PMS5003;54902;50.420;18.854;2022-12-18T00:45:15;9;5;4
55043;PMS5003;54902;50.420;18.854;2022-12-18T00:45:46;9;5;4
55043;PMS5003;54902;50.420;18.854;2022-12-18T00:46:17;9;5;4
55043;PMS5003;54902;50.420;18.854;2022-12-18T00:46:48;9;5;4
55043;PMS5003;54902;50.420;18.854;2022-12-18T00:47:19;9;5;4
55043;PMS5003;54902;50.420;18.854;2022-12-18T00:47:50;9;5;4
55043;PMS5003;54902;50.420;18.854;2022-12-18T00:48:21;9;5;4
55043;PMS5003;54902;50.420;18.854;2022-12-18T00:48:52;9;5;4
55043;PMS5003;54902;50.420;18.854;2022-12-18T00:49:23;13;9;6
55043;PMS5003;54902;50.420;18.854;2022-12-18T00:49:54;13;9;6
55043;PMS5003;54902;50.420;18.854;2022-12-18T00:50:28;13;9;6
55043;PMS5003;54902;50.420;18.854;2022-12-18T00:50:59;13;9;6
55043;PMS5003;54902;50.420;18.854;2022-12-18T00:51:30;13;9;6
55043;PMS5003;54902;50.420;18.854;2022-12-18T00:52:01;13;9;6
55043;PMS5003;54902;50.420;18.854;2022-12-18T00:52:32;13;9;6
55043;PMS5003;54902;50.420;18.854;2022-12-18T00:53:03;13;9;6
55043;PMS5003;54902;50.420;18.854;2022-12-18T00:53:34;13;9;6
55043;PMS5003;54902;50.420;18.854;2022-12-18T00:54:05;13;9;6
55043;PMS5003;54902;50.420;18.854;2022-12-18T00:54:36;13;9;6
55043;PMS5003;54902;50.420;18.854;2022-12-18T00:55:07;13;9;6
55043;PMS5003;54902;50.420;18.854;2022-12-18T00:55:39;13;9;6
55043;PMS5003;54902;50.420;18.854;2022-12-18T00:56:10;13;9;6
55043;PMS5003;54902;50.420;18.854;2022-12-18T00:56:41;13;9;6
55043;PMS5003;54902;50.420;18.854;2022-12-18T00:57:12;13;9;6
55043;PMS5003;54902;50.420;18.854;2022-12-18T00:57:43;13;9;6
55043;PMS5003;54902;50.420;18.854;2022-12-18T00:58:15;13;9;6
55043;PMS5003;54902;50.420;18.854;2022-12-18T00:58:46;13;9;6
55043;PMS5003;54902;50.420;18.854;2022-12-18T00:59:18;13;9;6
55043;PMS5003;54902;50.420;18.854;2022-12-18T00:59:49;13;9;6
55043;PMS5003;54902;50.420;18.854;2022-12-18T01:00:20;13;9;6
55043;PMS5003;54902;50.420;18.854;2022-12-18T01:00:52;13;9;6
55043;PMS5003;54902;50.420;18.854;2022-12-18T01:01:23;13;9;6
55043;PMS5003;54902;50.420;18.854;2022-12-18T01:01:54;13;9;6
55043;PMS5003;54902;50.420;18.854;2022-12-18T01:02:25;13;9;6
55043;PMS5003;54902;50.420;18.854;2022-12-18T01:02:56;13;9;6
55043;PMS5003;54902;50.420;18.854;2022-12-18T01:03:26;13;9;6
55043;PMS5003;54902;50.420;18.854;2022-12-18T01:03:59;13;9;6
55043;PMS5003;54902;50.420;18.854;2022-12-18T01:04:31;13;9;6
55043;PMS5003;54902;50.420;18.854;2022-12-18T01:05:03;13;9;6
55043;PMS5003;54902;50.420;18.854;2022-12-18T01:05:38;13;9;6
55043;PMS5003;54902;50.420;18.854;2022-12-18T01:06:11;13;9;6
55043;PMS5003;54902;50.420;18.854;2022-12-18T01:06:43;13;9;6
55043;PMS5003;54902;50.420;18.854;2022-12-18T01:07:14;13;9;6
55043;PMS5003;54902;50.420;18.854;2022-12-18T01:07:45;13;9;6
55043;PMS5003;54902;50.420;18.854;2022-12-18T01:08:16;13;9;6
55043;PMS5003;54902;50.420;18.854;2022-12-18T01:08:47;13;9;6
55043;PMS5003;54902;50.420;18.854;2022-12-18T01:09:18;13;9;6
55043;PMS5003;54902;50.420;18.854;2022-12-18T01:09:49;13;9;6
55043;PMS5003;54902;50.420;18.854;2022-12-18T01:10:20;13;9;6
55043;PMS5003;54902;50.420;18.854;2022-12-18T01:10:51;13;9;6
55043;PMS5003;54902;50.420;18.854;2022-12-18T01:11:22;13;9;6
55043;PMS5003;54902;50.420;18.854;2022-12-18T01:11:54;13;9;6
55043;PMS5003;54902;50.420;18.854;2022-12-18T01:12:25;13;9;6
55043;PMS5003;54902;50.420;18.854;2022-12-18T01:12:56;13;9;6
55043;PMS5003;54902;50.420;18.854;2022-12-18T01:13:27;13;9;6
55043;PMS5003;54902;50.420;18.854;2022-12-18T01:13:58;13;9;6
55043;PMS5003;54902;50.420;18.854;2022-12-18T01:14:30;13;9;6
55043;PMS5003;54902;50.420;18.854;2022-12-18T01:15:01;13;9;6
55043;PMS5003;54902;50.420;18.854;2022-12-18T01:15:33;13;9;6
55043;PMS5003;54902;50.420;18.854;2022-12-18T01:16:04;13;9;6
55043;PMS5003;54902;50.420;18.854;2022-12-18T01:16:35;13;9;6
55043;PMS5003;54902;50.420;18.854;2022-12-18T01:17:06;13;9;6
55043;PMS5003;54902;50.420;18.854;2022-12-18T01:17:37;13;9;6
55043;PMS5003;54902;50.420;18.854;2022-12-18T01:18:08;13;9;6
55043;PMS5003;54902;50.420;18.854;2022-12-18T01:18:39;13;9;6
55043;PMS5003;54902;50.420;18.854;2022-12-18T01:19:10;13;9;6
55043;PMS5003;54902;50.420;18.854;2022-12-18T01:19:42;13;9;6
55043;PMS5003;54902;50.420;18.854;2022-12-18T01:20:13;13;9;6
55043;PMS5003;54902;50.420;18.854;2022-12-18T01:20:44;13;9;6
55043;PMS5003;54902;50.420;18.854;2022-12-18T01:21:15;13;9;6
55043;PMS5003;54902;50.420;18.854;2022-12-18T01:21:47;13;9;6
55043;PMS5003;54902;50.420;18.854;2022-12-18T01:22:18;13;9;6
55043;PMS5003;54902;50.420;18.854;2022-12-18T01:22:49;13;9;6
55043;PMS5003;54902;50.420;18.854;2022-12-18T01:23:20;13;9;6
55043;PMS5003;54902;50.420;18.854;2022-12-18T01:23:51;13;9;6
55043;PMS5003;54902;50.420;18.854;2022-12-18T01:24:24;13;9;6
55043;PMS5003;54902;50.420;18.854;2022-12-18T01:24:55;13;9;6
55043;PMS5003;54902;50.420;18.854;2022-12-18T01:25:26;13;9;6
55043;PMS5003;54902;50.420;18.854;2022-12-18T01:25:57;13;9;6
55043;PMS5003;54902;50.420;18.854;2022-12-18T01:26:28;5;4;3
55043;PMS5003;54902;50.420;18.854;2022-12-18T01:26:59;5;4;3
55043;PMS5003;54902;50.420;18.854;2022-12-18T01:27:30;5;4;3
55043;PMS5003;54902;50.420;18.854;2022-12-18T01:28:03;5;4;3
55043;PMS5003;54902;50.420;18.854;2022-12-18T01:28:34;5;4;3
55043;PMS5003;54902;50.420;18.854;2022-12-18T01:29:05;5;4;3
55043;PMS5003;54902;50.420;18.854;2022-12-18T01:29:36;5;4;3
55043;PMS5003;54902;50.420;18.854;2022-12-18T01:30:07;5;4;3
55043;PMS5003;54902;50.420;18.854;2022-12-18T01:30:39;5;4;3
55043;PMS5003;54902;50.420;18.854;2022-12-18T01:31:48;7;7;6
55043;PMS5003;54902;50.420;18.854;2022-12-18T01:32:19;7;7;6
55043;PMS5003;54902;50.420;18.854;2022-12-18T01:32:50;7;7;6
55043;PMS5003;54902;50.420;18.854;2022-12-18T01:33:21;7;7;6
55043;PMS5003;54902;50.420;18.854;2022-12-18T01:33:52;7;7;6
55043;PMS5003;54902;50.420;18.854;2022-12-18T01:34:24;7;7;6
55043;PMS5003;54902;50.420;18.854;2022-12-18T01:34:55;7;7;6
55043;PMS5003;54902;50.420;18.854;2022-12-18T01:35:26;7;7;6
55043;PMS5003;54902;50.420;18.854;2022-12-18T01:35:57;7;7;6
55043;PMS5003;54902;50.420;18.854;2022-12-18T01:36:29;7;7;6
55043;PMS5003;54902;50.420;18.854;2022-12-18T01:37:05;7;7;6
55043;PMS5003;54902;50.420;18.854;2022-12-18T01:37:36;7;7;6
55043;PMS5003;54902;50.420;18.854;2022-12-18T01:38:07;7;7;6
55043;PMS5003;54902;50.420;18.854;2022-12-18T01:38:38;4;4;3
55043;PMS5003;54902;50.420;18.854;2022-12-18T01:39:10;4;4;3
55043;PMS5003;54902;50.420;18.854;2022-12-18T01:39:42;4;4;3
55043;PMS5003;54902;50.420;18.854;2022-12-18T01:40:13;4;4;3
55043;PMS5003;54902;50.420;18.854;2022-12-18T01:40:44;4;4;3
55043;PMS5003;54902;50.420;18.854;2022-12-18T01:41:16;4;4;3
55043;PMS5003;54902;50.420;18.854;2022-12-18T01:41:48;5;5;3
55043;PMS5003;54902;50.420;18.854;2022-12-18T01:42:31;5;5;3
55043;PMS5003;54902;50.420;18.854;2022-12-18T01:43:02;5;5;3
55043;PMS5003;54902;50.420;18.854;2022-12-18T01:45:39;5;5;3
55043;PMS5003;54902;50.420;18.854;2022-12-18T01:46:11;5;5;3
55043;PMS5003;54902;50.420;18.854;2022-12-18T01:46:42;5;5;3
55043;PMS5003;54902;50.420;18.854;2022-12-18T01:47:23;5;5;3
55043;PMS5003;54902;50.420;18.854;2022-12-18T01:48:33;6;6;4
55043;PMS5003;54902;50.420;18.854;2022-12-18T01:49:04;6;6;4
55043;PMS5003;54902;50.420;18.854;2022-12-18T01:49:35;6;6;4
55043;PMS5003;54902;50.420;18.854;2022-12-18T01:50:08;6;6;4
55043;PMS5003;54902;50.420;18.854;2022-12-18T01:50:41;6;6;4
55043;PMS5003;54902;50.420;18.854;2022-12-18T01:51:13;6;6;4
55043;PMS5003;54902;50.420;18.854;2022-12-18T01:51:45;6;6;4
55043;PMS5003;54902;50.420;18.854;2022-12-18T01:52:16;6;6;4
55043;PMS5003;54902;50.420;18.854;2022-12-18T01:52:52;6;6;4
55043;PMS5003;54902;50.420;18.854;2022-12-18T01:53:26;6;6;4
55043;PMS5003;54902;50.420;18.854;2022-12-18T01:53:58;6;6;4
55043;PMS5003;54902;50.420;18.854;2022-12-18T01:54:30;6;6;4
55043;PMS5003;54902;50.420;18.854;2022-12-18T01:55:02;6;6;4
55043;PMS5003;54902;50.420;18.854;2022-12-18T01:55:40;6;6;4
55043;PMS5003;54902;50.420;18.854;2022-12-18T01:56:16;6;6;4
55043;PMS5003;54902;50.420;18.854;2022-12-18T01:56:49;6;6;4
55043;PMS5003;54902;50.420;18.854;2022-12-18T01:57:20;6;6;4
55043;PMS5003;54902;50.420;18.854;2022-12-18T01:57:54;6;6;4
55043;PMS5003;54902;50.420;18.854;2022-12-18T01:58:33;5;5;3
55043;PMS5003;54902;50.420;18.854;2022-12-18T01:59:08;5;5;4
55043;PMS5003;54902;50.420;18.854;2022-12-18T01:59:41;5;5;4
55043;PMS5003;54902;50.420;18.854;2022-12-18T02:00:17;5;5;4
55043;PMS5003;54902;50.420;18.854;2022-12-18T02:00:50;5;5;4
55043;PMS5003;54902;50.420;18.854;2022-12-18T02:01:22;5;5;4
55043;PMS5003;54902;50.420;18.854;2022-12-18T02:01:54;5;5;4
55043;PMS5003;54902;50.420;18.854;2022-12-18T02:02:26;5;5;4
55043;PMS5003;54902;50.420;18.854;2022-12-18T02:02:59;5;5;4
55043;PMS5003;54902;50.420;18.854;2022-12-18T02:03:31;5;5;4
55043;PMS5003;54902;50.420;18.854;2022-12-18T02:04:45;22;21;11
55043;PMS5003;54902;50.420;18.854;2022-12-18T02:05:20;22;21;11
55043;PMS5003;54902;50.420;18.854;2022-12-18T02:06:00;22;21;11
55043;PMS5003;54902;50.420;18.854;2022-12-18T02:06:40;22;21;11
55043;PMS5003;54902;50.420;18.854;2022-12-18T02:12:18;33;31;15
55043;PMS5003;54902;50.420;18.854;2022-12-18T02:12:56;33;31;15
55043;PMS5003;54902;50.420;18.854;2022-12-18T02:15:44;15;14;7
55043;PMS5003;54902;50.420;18.854;2022-12-18T02:17:09;15;14;7
55043;PMS5003;54902;50.420;18.854;2022-12-18T02:17:48;15;14;7
55043;PMS5003;54902;50.420;18.854;2022-12-18T02:18:28;5;5;3
55043;PMS5003;54902;50.420;18.854;2022-12-18T02:19:08;5;5;3
55043;PMS5003;54902;50.420;18.854;2022-12-18T02:27:00;3;3;3
55043;PMS5003;54902;50.420;18.854;2022-12-18T02:27:35;3;3;3
55043;PMS5003;54902;50.420;18.854;2022-12-18T02:28:11;3;3;3
55043;PMS5003;54902;50.420;18.854;2022-12-18T02:28:53;3;3;3
55043;PMS5003;54902;50.420;18.854;2022-12-18T02:29:35;3;3;3
55043;PMS5003;54902;50.420;18.854;2022-12-18T02:30:11;3;3;3
55043;PMS5003;54902;50.420;18.854;2022-12-18T02:30:44;3;3;3
55043;PMS5003;54902;50.420;18.854;2022-12-18T02:31:20;3;3;3
55043;PMS5003;54902;50.420;18.854;2022-12-18T02:31:56;4;4;4
55043;PMS5003;54902;50.420;18.854;2022-12-18T02:32:33;3;3;2
55043;PMS5003;54902;50.420;18.854;2022-12-18T02:33:08;3;3;2
55043;PMS5003;54902;50.420;18.854;2022-12-18T02:33:41;3;3;2
55043;PMS5003;54902;50.420;18.854;2022-12-18T02:34:15;3;3;2
55043;PMS5003;54902;50.420;18.854;2022-12-18T02:34:48;3;3;2
55043;PMS5003;54902;50.420;18.854;2022-12-18T02:35:24;3;3;2
55043;PMS5003;54902;50.420;18.854;2022-12-18T02:35:58;3;3;2
55043;PMS5003;54902;50.420;18.854;2022-12-18T02:36:31;3;3;2
55043;PMS5003;54902;50.420;18.854;2022-12-18T02:37:06;3;3;2
55043;PMS5003;54902;50.420;18.854;2022-12-18T02:37:43;7;7;4
55043;PMS5003;54902;50.420;18.854;2022-12-18T02:38:17;7;7;4
55043;PMS5003;54902;50.420;18.854;2022-12-18T02:38:48;7;7;4
55043;PMS5003;54902;50.420;18.854;2022-12-18T02:39:21;7;7;4
55043;PMS5003;54902;50.420;18.854;2022-12-18T02:39:54;7;7;4
55043;PMS5003;54902;50.420;18.854;2022-12-18T02:40:28;7;7;4
55043;PMS5003;54902;50.420;18.854;2022-12-18T02:41:00;7;7;4
55043;PMS5003;54902;50.420;18.854;2022-12-18T02:41:33;7;7;4
55043;PMS5003;54902;50.420;18.854;2022-12-18T02:42:06;7;7;4
55043;PMS5003;54902;50.420;18.854;2022-12-18T02:42:38;7;7;4
55043;PMS5003;54902;50.420;18.854;2022-12-18T02:43:10;7;7;4
55043;PMS5003;54902;50.420;18.854;2022-12-18T02:43:47;7;7;4
55043;PMS5003;54902;50.420;18.854;2022-12-18T02:44:18;7;7;4
55043;PMS5003;54902;50.420;18.854;2022-12-18T02:44:50;7;7;4
55043;PMS5003;54902;50.420;18.854;2022-12-18T02:45:24;7;7;4
55043;PMS5003;54902;50.420;18.854;2022-12-18T02:45:57;5;5;3
55043;PMS5003;54902;50.420;18.854;2022-12-18T02:46:31;5;5;3
55043;PMS5003;54902;50.420;18.854;2022-12-18T02:47:08;5;5;3
55043;PMS5003;54902;50.420;18.854;2022-12-18T02:47:46;5;5;3
55043;PMS5003;54902;50.420;18.854;2022-12-18T02:48:22;5;5;3
55043;PMS5003;54902;50.420;18.854;2022-12-18T02:49:06;4;4;4
55043;PMS5003;54902;50.420;18.854;2022-12-18T02:50:26;4;4;4
55043;PMS5003;54902;50.420;18.854;2022-12-18T02:54:03;4;4;4
55043;PMS5003;54902;50.420;18.854;2022-12-18T02:56:47;6;6;6
55043;PMS5003;54902;50.420;18.854;2022-12-18T02:59:42;5;5;4
55043;PMS5003;54902;50.420;18.854;2022-12-18T03:00:18;5;5;4
55043;PMS5003;54902;50.420;18.854;2022-12-18T03:01:05;5;5;4
55043;PMS5003;54902;50.420;18.854;2022-12-18T03:01:40;5;5;4
55043;PMS5003;54902;50.420;18.854;2022-12-18T03:02:21;5;5;4
55043;PMS5003;54902;50.420;18.854;2022-12-18T03:05:21;4;4;2
55043;PMS5003;54902;50.420;18.854;2022-12-18T03:06:15;4;4;2
55043;PMS5003;54902;50.420;18.854;2022-12-18T03:06:41;4;4;2
55043;PMS5003;54902;50.420;18.854;2022-12-18T03:07:21;4;4;2
55043;PMS5003;54902;50.420;18.854;2022-12-18T03:08:00;4;4;2
55043;PMS5003;54902;50.420;18.854;2022-12-18T03:08:42;4;4;2
55043;PMS5003;54902;50.420;18.854;2022-12-18T03:09:21;4;4;2
55043;PMS5003;54902;50.420;18.854;2022-12-18T03:10:00;4;4;3
55043;PMS5003;54902;50.420;18.854;2022-12-18T03:10:34;4;4;3
55043;PMS5003;54902;50.420;18.854;2022-12-18T03:11:12;4;4;3
55043;PMS5003;54902;50.420;18.854;2022-12-18T03:11:45;4;4;3
55043;PMS5003;54902;50.420;18.854;2022-12-18T03:12:38;4;4;3
55043;PMS5003;54902;50.420;18.854;2022-12-18T03:13:16;4;4;3
55043;PMS5003;54902;50.420;18.854;2022-12-18T03:13:54;4;4;3
55043;PMS5003;54902;50.420;18.854;2022-12-18T03:14:29;4;4;3
55043;PMS5003;54902;50.420;18.854;2022-12-18T03:15:04;4;4;3
55043;PMS5003;54902;50.420;18.854;2022-12-18T03:15:42;4;4;3
55043;PMS5003;54902;50.420;18.854;2022-12-18T03:16:18;4;4;3
55043;PMS5003;54902;50.420;18.854;2022-12-18T03:16:59;4;4;3
55043;PMS5003;54902;50.420;18.854;2022-12-18T03:17:34;4;4;3
55043;PMS5003;54902;50.420;18.854;2022-12-18T03:18:17;4;4;3
55043;PMS5003;54902;50.420;18.854;2022-12-18T03:18:52;1;1;1
55043;PMS5003;54902;50.420;18.854;2022-12-18T03:19:28;1;1;1
55043;PMS5003;54902;50.420;18.854;2022-12-18T03:20:07;1;1;1
55043;PMS5003;54902;50.420;18.854;2022-12-18T03:20:44;1;1;1
55043;PMS5003;54902;50.420;18.854;2022-12-18T03:21:19;1;1;1
55043;PMS5003;54902;50.420;18.854;2022-12-18T03:21:56;4;1;0
55043;PMS5003;54902;50.420;18.854;2022-12-18T03:22:32;4;4;2
55043;PMS5003;54902;50.420;18.854;2022-12-18T03:23:09;4;4;2
55043;PMS5003;54902;50.420;18.854;2022-12-18T03:23:47;4;4;2
55043;PMS5003;54902;50.420;18.854;2022-12-18T03:24:20;4;4;2
55043;PMS5003;54902;50.420;18.854;2022-12-18T03:24:53;4;4;2
55043;PMS5003;54902;50.420;18.854;2022-12-18T03:25:27;4;4;2
55043;PMS5003;54902;50.420;18.854;2022-12-18T03:26:02;4;4;2
55043;PMS5003;54902;50.420;18.854;2022-12-18T03:26:38;4;4;2
55043;PMS5003;54902;50.420;18.854;2022-12-18T03:27:15;4;4;2
55043;PMS5003;54902;50.420;18.854;2022-12-18T03:27:51;4;4;2
55043;PMS5003;54902;50.420;18.854;2022-12-18T03:28:28;7;7;4
55043;PMS5003;54902;50.420;18.854;2022-12-18T03:29:04;7;7;4
55043;PMS5003;54902;50.420;18.854;2022-12-18T03:29:41;7;7;4
55043;PMS5003;54902;50.420;18.854;2022-12-18T03:30:18;7;7;4
55043;PMS5003;54902;50.420;18.854;2022-12-18T03:30:50;7;7;4
55043;PMS5003;54902;50.420;18.854;2022-12-18T03:31:26;7;7;4
55043;PMS5003;54902;50.420;18.854;2022-12-18T03:32:02;7;7;4
55043;PMS5003;54902;50.420;18.854;2022-12-18T03:32:41;7;7;4
55043;PMS5003;54902;50.420;18.854;2022-12-18T03:33:58;7;7;4
55043;PMS5003;54902;50.420;18.854;2022-12-18T03:34:35;7;7;4
55043;PMS5003;54902;50.420;18.854;2022-12-18T03:35:10;7;7;4
55043;PMS5003;54902;50.420;18.854;2022-12-18T03:35:43;7;7;4
55043;PMS5003;54902;50.420;18.854;2022-12-18T03:36:14;7;7;4
55043;PMS5003;54902;50.420;18.854;2022-12-18T03:36:46;7;7;4
55043;PMS5003;54902;50.420;18.854;2022-12-18T03:37:17;7;7;4
55043;PMS5003;54902;50.420;18.854;2022-12-18T03:37:48;7;7;4
55043;PMS5003;54902;50.420;18.854;2022-12-18T03:38:19;7;7;4
55043;PMS5003;54902;50.420;18.854;2022-12-18T03:38:50;7;7;4
55043;PMS5003;54902;50.420;18.854;2022-12-18T03:39:21;7;7;4
55043;PMS5003;54902;50.420;18.854;2022-12-18T03:39:52;7;7;4
55043;PMS5003;54902;50.420;18.854;2022-12-18T03:40:25;7;7;4
55043;PMS5003;54902;50.420;18.854;2022-12-18T03:41:51;7;7;4
55043;PMS5003;54902;50.420;18.854;2022-12-18T03:42:29;7;7;4
55043;PMS5003;54902;50.420;18.854;2022-12-18T03:43:11;7;7;4
55043;PMS5003;54902;50.420;18.854;2022-12-18T03:44:00;7;7;4
55043;PMS5003;54902;50.420;18.854;2022-12-18T03:44:40;7;7;4
55043;PMS5003;54902;50.420;18.854;2022-12-18T03:45:25;7;7;4
55043;PMS5003;54902;50.420;18.854;2022-12-18T03:46:04;7;7;4
55043;PMS5003;54902;50.420;18.854;2022-12-18T03:48:52;7;7;4
55043;PMS5003;54902;50.420;18.854;2022-12-18T03:49:34;7;7;4
55043;PMS5003;54902;50.420;18.854;2022-12-18T03:50:13;7;7;4
55043;PMS5003;54902;50.420;18.854;2022-12-18T03:50:56;7;7;4
55043;PMS5003;54902;50.420;18.854;2022-12-18T03:51:34;7;7;4
55043;PMS5003;54902;50.420;18.854;2022-12-18T03:52:30;7;7;4
55043;PMS5003;54902;50.420;18.854;2022-12-18T03:54:22;7;7;4
55043;PMS5003;54902;50.420;18.854;2022-12-18T03:54:55;7;7;4
55043;PMS5003;54902;50.420;18.854;2022-12-18T03:55:29;7;7;4
55043;PMS5003;54902;50.420;18.854;2022-12-18T03:56:05;7;7;5
55043;PMS5003;54902;50.420;18.854;2022-12-18T03:56:40;7;7;5
55043;PMS5003;54902;50.420;18.854;2022-12-18T03:57:19;7;7;5
55043;PMS5003;54902;50.420;18.854;2022-12-18T03:57:51;7;7;5
55043;PMS5003;54902;50.420;18.854;2022-12-18T03:58:24;5;5;3
55043;PMS5003;54902;50.420;18.854;2022-12-18T03:58:57;5;5;3
55043;PMS5003;54902;50.420;18.854;2022-12-18T03:59:31;0;0;0
55043;PMS5003;54902;50.420;18.854;2022-12-18T04:00:07;0;0;0
55043;PMS5003;54902;50.420;18.854;2022-12-18T04:00:41;0;0;0
55043;PMS5003;54902;50.420;18.854;2022-12-18T04:01:14;0;0;0
55043;PMS5003;54902;50.420;18.854;2022-12-18T04:01:49;0;0;0
55043;PMS5003;54902;50.420;18.854;2022-12-18T04:02:23;0;0;0
55043;PMS5003;54902;50.420;18.854;2022-12-18T04:02:55;0;0;0
55043;PMS5003;54902;50.420;18.854;2022-12-18T04:03:30;0;0;0
55043;PMS5003;54902;50.420;18.854;2022-12-18T04:04:04;0;0;0
55043;PMS5003;54902;50.420;18.854;2022-12-18T04:04:37;0;0;0
55043;PMS5003;54902;50.420;18.854;2022-12-18T04:05:10;1;1;1
55043;PMS5003;54902;50.420;18.854;2022-12-18T04:05:43;1;1;1
55043;PMS5003;54902;50.420;18.854;2022-12-18T04:06:15;1;1;1
55043;PMS5003;54902;50.420;18.854;2022-12-18T04:06:47;1;1;1
55043;PMS5003;54902;50.420;18.854;2022-12-18T04:07:21;1;1;1
55043;PMS5003;54902;50.420;18.854;2022-12-18T04:07:53;1;1;1
55043;PMS5003;54902;50.420;18.854;2022-12-18T04:08:27;1;1;1
55043;PMS5003;54902;50.420;18.854;2022-12-18T04:08:59;1;1;1
55043;PMS5003;54902;50.420;18.854;2022-12-18T04:09:31;1;1;1
55043;PMS5003;54902;50.420;18.854;2022-12-18T04:10:04;1;1;1
55043;PMS5003;54902;50.420;18.854;2022-12-18T04:10:37;1;1;1
55043;PMS5003;54902;50.420;18.854;2022-12-18T04:11:08;1;1;1
55043;PMS5003;54902;50.420;18.854;2022-12-18T04:11:40;1;1;1
55043;PMS5003;54902;50.420;18.854;2022-12-18T04:12:14;1;1;1
55043;PMS5003;54902;50.420;18.854;2022-12-18T04:12:45;1;1;1
55043;PMS5003;54902;50.420;18.854;2022-12-18T04:13:59;1;1;1
55043;PMS5003;54902;50.420;18.854;2022-12-18T04:14:30;1;1;1
55043;PMS5003;54902;50.420;18.854;2022-12-18T04:15:06;1;1;1
55043;PMS5003;54902;50.420;18.854;2022-12-18T04:15:38;1;1;1
55043;PMS5003;54902;50.420;18.854;2022-12-18T04:16:10;1;1;1
55043;PMS5003;54902;50.420;18.854;2022-12-18T04:16:41;1;1;1
55043;PMS5003;54902;50.420;18.854;2022-12-18T04:17:12;1;1;1
55043;PMS5003;54902;50.420;18.854;2022-12-18T04:17:51;1;1;1